Time;durP1;ratioP1;P1;durP2;ratioP2;P2;SDS_P1;SDS_P2;PMS_P1;PMS_P2;Temp;Humidity;BMP_temperature;BMP_pressure;BME280_temperature;BME280_humidity;BME280_pressure;Samples;Min_cycle;Max_cycle;Signal;HPM_P1;HPM_P2
2023/09/25 00:00:35;;;;;;;3.80;1.50;;;;;;;22.00;82.10;99759.16;4934240;29;20119;-86
2023/09/25 00:03:03;;;;;;;3.08;1.83;;;;;;;21.84;83.65;99769.09;4934487;29;20074;-86
2023/09/25 00:05:29;;;;;;;2.58;1.17;;;;;;;22.06;83.03;99774.03;4934320;29;20035;-85
2023/09/25 00:07:55;;;;;;;7.63;2.75;;;;;;;22.41;81.65;99791.63;4933760;29;20031;-84
2023/09/25 00:10:21;;;;;;;1.90;1.23;;;;;;;22.13;82.71;99790.63;4935296;29;20057;-85
2023/09/25 00:12:47;;;;;;;2.72;1.98;;;;;;;22.04;83.67;99793.88;4933998;29;20042;-85
2023/09/25 00:15:13;;;;;;;2.53;1.80;;;;;;;21.98;83.24;99771.81;4934035;29;20046;-85
2023/09/25 00:17:40;;;;;;;2.22;1.60;;;;;;;22.18;82.26;99769.72;4933483;29;20028;-86
2023/09/25 00:20:10;;;;;;;2.85;1.55;;;;;;;22.15;82.97;99791.38;4933511;29;20033;-88
2023/09/25 00:22:36;;;;;;;2.47;1.75;;;;;;;22.15;82.40;99783.34;4933661;29;20414;-86
2023/09/25 00:25:02;;;;;;;3.10;2.35;;;;;;;22.13;82.27;99772.69;4933735;29;20031;-85
2023/09/25 00:27:27;;;;;;;3.13;2.22;;;;;;;22.24;81.67;99788.13;4933679;29;20417;-85
2023/09/25 00:29:53;;;;;;;2.97;2.17;;;;;;;22.33;81.38;99790.28;4934218;29;20090;-85
2023/09/25 00:32:18;;;;;;;1.75;1.42;;;;;;;22.31;81.13;99783.31;4934521;29;20031;-85
2023/09/25 00:34:43;;;;;;;4.38;2.95;;;;;;;22.44;81.22;99802.19;4933386;29;20039;-85
2023/09/25 00:37:09;;;;;;;3.03;1.85;;;;;;;22.28;80.74;99772.72;4933566;29;20106;-85
2023/09/25 00:39:34;;;;;;;6.72;2.17;;;;;;;22.50;80.78;99808.03;4933289;29;20027;-84
2023/09/25 00:42:00;;;;;;;4.22;2.38;;;;;;;22.29;81.18;99782.47;4934392;29;20042;-84
2023/09/25 00:44:25;;;;;;;3.78;1.85;;;;;;;22.54;80.69;99808.72;4933437;29;20027;-85
2023/09/25 00:46:51;;;;;;;2.17;1.70;;;;;;;22.21;80.69;99761.47;4932974;29;20091;-84
2023/09/25 00:49:18;;;;;;;3.30;2.10;;;;;;;22.29;81.67;99806.66;4933300;29;20134;-84
2023/09/25 00:51:48;;;;;;;5.93;4.47;;;;;;;22.38;81.29;99803.44;4934040;29;20118;-85
2023/09/25 00:54:17;;;;;;;2.40;1.67;;;;;;;22.39;81.35;99807.00;4933391;29;20042;-85
2023/09/25 00:56:43;;;;;;;5.75;2.30;;;;;;;22.48;80.53;99803.75;4932988;29;20502;-85
2023/09/25 00:59:09;;;;;;;3.63;2.33;;;;;;;22.22;81.35;99791.91;4933567;29;20036;-85
2023/09/25 01:01:34;;;;;;;4.03;2.53;;;;;;;22.22;81.14;99775.78;4934560;29;20452;-84
2023/09/25 01:04:00;;;;;;;2.85;2.08;;;;;;;22.38;80.44;99787.31;4933342;29;20038;-84
2023/09/25 01:06:25;;;;;;;5.43;2.08;;;;;;;22.65;79.36;99798.16;4915145;29;20127;-84
2023/09/25 01:08:51;;;;;;;2.15;1.58;;;;;;;22.45;80.05;99796.72;4933474;29;20032;-84
2023/09/25 01:11:16;;;;;;;2.28;1.58;;;;;;;22.33;80.68;99806.41;4932936;29;20534;-85
2023/09/25 01:13:42;;;;;;;2.25;1.38;;;;;;;22.43;80.22;99805.84;4933993;29;20122;-85
2023/09/25 01:16:07;;;;;;;2.40;1.83;;;;;;;22.45;80.16;99810.16;4933219;29;20444;-85
2023/09/25 01:18:33;;;;;;;3.42;1.95;;;;;;;22.39;79.56;99785.50;4933082;29;20426;-85
2023/09/25 01:21:02;;;;;;;7.22;1.50;;;;;;;22.30;79.99;99785.09;4945311;29;20058;-85
2023/09/25 01:23:27;;;;;;;3.65;2.33;;;;;;;22.40;79.82;99804.22;4920511;29;20454;-84
2023/09/25 01:25:53;;;;;;;1.50;1.15;;;;;;;22.28;80.18;99796.91;4932937;29;20031;-85
2023/09/25 01:28:18;;;;;;;1.30;1.08;;;;;;;22.16;80.41;99791.28;4932682;29;20466;-85
2023/09/25 01:30:44;;;;;;;4.55;2.08;;;;;;;22.28;79.34;99778.94;4933035;29;20052;-86
2023/09/25 01:33:10;;;;;;;2.53;1.80;;;;;;;22.20;81.19;99807.22;4933633;29;20567;-86
2023/09/25 01:35:35;;;;;;;3.67;1.90;;;;;;;22.45;80.08;99825.44;4932889;29;20119;-85
2023/09/25 01:38:04;;;;;;;2.42;1.65;;;;;;;22.59;79.12;99820.03;4932348;29;20467;-86
2023/09/25 01:40:30;;;;;;;2.15;1.83;;;;;;;22.41;79.97;99832.81;4944757;29;20039;-85
2023/09/25 01:42:56;;;;;;;1.85;1.40;;;;;;;22.30;80.05;99803.03;4937464;29;20403;-84
2023/09/25 01:45:22;;;;;;;3.72;2.30;;;;;;;22.32;79.88;99807.38;4947775;29;20050;-84
2023/09/25 01:47:50;;;;;;;2.58;2.05;;;;;;;22.16;80.86;99807.41;4936580;29;20036;-84
2023/09/25 01:50:21;;;;;;;9.00;1.88;;;;;;;22.24;81.38;99831.13;4932601;29;20403;-84
2023/09/25 01:52:48;;;;;;;3.58;1.73;;;;;;;22.39;79.90;99810.53;4947488;29;20110;-84
2023/09/25 01:55:14;;;;;;;3.38;1.48;;;;;;;22.22;80.30;99806.19;4951275;29;20059;-85
2023/09/25 01:57:39;;;;;;;8.27;2.20;;;;;;;22.20;80.49;99821.53;4950414;29;20489;-84
2023/09/25 02:00:12;;;;;;;2.35;1.70;;;;;;;22.32;80.41;99818.13;4951508;29;20178;-84
2023/09/25 02:02:38;;;;;;;7.88;2.63;;;;;;;22.32;79.46;99803.81;4952214;29;20502;-85
2023/09/25 02:05:05;;;;;;;2.92;1.98;;;;;;;22.49;79.74;99841.28;4951535;29;20561;-85
2023/09/25 02:07:32;;;;;;;3.58;2.17;;;;;;;22.45;79.44;99822.75;4949444;29;20431;-84
2023/09/25 02:09:57;;;;;;;2.88;1.77;;;;;;;22.71;78.66;99838.09;4952527;28;20047;-84
2023/09/25 02:12:23;;;;;;;5.93;2.42;;;;;;;22.56;77.96;99806.81;4954806;29;20023;-84
2023/09/25 02:14:51;;;;;;;2.42;1.58;;;;;;;22.58;77.13;99790.56;4954977;29;20486;-86
2023/09/25 02:17:16;;;;;;;2.47;1.80;;;;;;;22.83;77.67;99849.91;4955284;29;20510;-85
2023/09/25 02:19:42;;;;;;;2.85;1.77;;;;;;;22.76;77.92;99843.19;4953858;29;20122;-84
2023/09/25 02:22:07;;;;;;;2.88;1.70;;;;;;;22.72;77.70;99847.00;4954581;29;20034;-84
2023/09/25 02:24:38;;;;;;;2.72;1.95;;;;;;;22.74;77.46;99850.50;4955057;29;20035;-84
2023/09/25 02:27:04;;;;;;;4.55;2.40;;;;;;;22.49;77.84;99819.78;4937755;29;20421;-84
2023/09/25 02:29:29;;;;;;;3.33;2.00;;;;;;;22.58;77.29;99828.22;4953071;29;20027;-84
2023/09/25 02:31:55;;;;;;;3.78;2.88;;;;;;;22.61;77.14;99838.78;4954683;29;20106;-85
2023/09/25 02:34:21;;;;;;;8.85;1.83;;;;;;;22.72;77.53;99855.06;4943356;29;20036;-84
2023/09/25 02:36:46;;;;;;;1.83;1.50;;;;;;;22.83;77.01;99857.09;4917663;29;20514;-84
2023/09/25 02:39:13;;;;;;;2.28;2.10;;;;;;;22.72;76.94;99838.94;4935942;29;20027;-84
2023/09/25 02:41:40;;;;;;;3.55;1.65;;;;;;;22.72;76.90;99841.63;4935541;29;20656;-85
2023/09/25 02:44:05;;;;;;;2.78;1.67;;;;;;;22.53;76.87;99810.53;4935594;29;20027;-85
2023/09/25 02:46:31;;;;;;;3.15;2.47;;;;;;;22.58;76.50;99820.16;4935766;29;20042;-85
2023/09/25 02:48:57;;;;;;;3.55;1.73;;;;;;;22.76;76.63;99850.38;4936132;29;20031;-85
2023/09/25 02:51:22;;;;;;;3.50;2.28;;;;;;;22.68;77.07;99846.34;4945691;29;20115;-84
2023/09/25 02:53:48;;;;;;;4.47;2.90;;;;;;;22.71;76.57;99835.41;4935219;29;20059;-85
2023/09/25 02:56:14;;;;;;;10.63;2.72;;;;;;;22.80;76.90;99866.25;4935275;29;20050;-84
2023/09/25 02:58:39;;;;;;;3.33;2.47;;;;;;;22.69;76.81;99844.50;4931042;29;20403;-85
2023/09/25 03:01:05;;;;;;;3.47;2.38;;;;;;;22.71;76.77;99850.69;4952859;29;20557;-84
2023/09/25 03:03:30;;;;;;;3.85;2.42;;;;;;;22.89;76.17;99854.00;4954046;29;20031;-86
2023/09/25 03:05:56;;;;;;;5.07;3.55;;;;;;;22.87;76.24;99867.56;4953888;29;20410;-85
2023/09/25 03:08:22;;;;;;;9.15;3.95;;;;;;;22.81;76.84;99878.69;4953935;29;20121;-87
2023/09/25 03:10:47;;;;;;;4.68;3.10;;;;;;;22.81;76.48;99854.50;4953879;29;20438;-86
2023/09/25 03:13:13;;;;;;;2.75;2.10;;;;;;;22.74;76.46;99852.28;4952953;29;20090;-85
2023/09/25 03:15:38;;;;;;;4.85;2.55;;;;;;;22.77;76.23;99854.78;4954259;29;20123;-84
2023/09/25 03:18:04;;;;;;;2.35;1.40;;;;;;;22.61;76.69;99846.84;4936517;29;20490;-85
2023/09/25 03:20:30;;;;;;;5.47;3.25;;;;;;;22.50;75.78;99805.34;4953606;28;20035;-86
2023/09/25 03:22:56;;;;;;;3.85;1.63;;;;;;;22.50;76.51;99826.00;4951134;29;20046;-88
2023/09/25 03:25:22;;;;;;;3.22;2.35;;;;;;;22.68;76.48;99867.00;4953813;29;20098;-86
2023/09/25 03:27:49;;;;;;;3.53;2.47;;;;;;;22.76;76.07;99869.22;4954371;29;20062;-87
2023/09/25 03:30:15;;;;;;;3.75;2.13;;;;;;;22.83;76.50;99881.28;4953344;29;20059;-85
2023/09/25 03:32:41;;;;;;;5.75;1.60;;;;;;;22.81;76.09;99873.31;4952148;29;20031;-85
2023/09/25 03:35:07;;;;;;;8.98;2.13;;;;;;;23.02;75.79;99897.16;4936416;29;20035;-85
2023/09/25 03:37:33;;;;;;;5.75;3.00;;;;;;;22.95;75.85;99883.19;4953779;29;20056;-85
2023/09/25 03:39:58;;;;;;;6.28;1.90;;;;;;;23.03;75.44;99896.16;4953615;29;20035;-86
2023/09/25 03:42:24;;;;;;;3.80;2.45;;;;;;;22.82;75.51;99869.69;4953561;29;20035;-86
2023/09/25 03:44:51;;;;;;;3.60;2.72;;;;;;;22.83;75.87;99865.16;4952766;29;20171;-85
2023/09/25 03:47:18;;;;;;;3.30;2.03;;;;;;;22.88;76.55;99888.13;4936305;29;20032;-86
2023/09/25 03:49:44;;;;;;;4.72;2.65;;;;;;;22.88;76.87;99895.34;4934537;29;20047;-84
2023/09/25 03:52:09;;;;;;;5.93;3.05;;;;;;;22.96;76.12;99887.63;4934204;29;20487;-84
2023/09/25 03:54:34;;;;;;;3.42;1.83;;;;;;;22.89;76.17;99876.41;4934630;29;20057;-84
2023/09/25 03:57:00;;;;;;;3.00;2.25;;;;;;;22.87;75.82;99875.63;4934171;29;20058;-84
2023/09/25 03:59:26;;;;;;;6.57;2.03;;;;;;;22.81;75.68;99873.31;4941261;29;20133;-86
2023/09/25 04:01:51;;;;;;;8.70;2.50;;;;;;;22.79;74.77;99856.44;4953217;29;20031;-86
2023/09/25 04:04:17;;;;;;;11.70;2.80;;;;;;;22.99;75.91;99905.41;4953060;29;20564;-85
2023/09/25 04:06:42;;;;;;;4.07;2.38;;;;;;;22.89;76.00;99886.28;4953356;29;20031;-86
2023/09/25 04:09:08;;;;;;;4.00;1.98;;;;;;;22.66;75.52;99845.59;4951456;29;20041;-87
2023/09/25 04:11:34;;;;;;;3.70;2.30;;;;;;;22.93;75.75;99885.13;4953072;29;20063;-86
2023/09/25 04:14:00;;;;;;;3.35;2.13;;;;;;;22.82;76.28;99882.28;4952750;29;20118;-85
2023/09/25 04:16:28;;;;;;;3.00;1.90;;;;;;;22.85;75.89;99871.31;4949568;29;20027;-86
2023/09/25 04:18:54;;;;;;;4.68;2.65;;;;;;;23.16;75.40;99910.59;4922047;29;20536;-85
2023/09/25 04:21:21;;;;;;;5.70;2.33;;;;;;;23.11;75.28;99901.09;4943282;29;20562;-85
2023/09/25 04:23:47;;;;;;;7.07;1.90;;;;;;;22.79;75.39;99864.50;4935678;29;20078;-86
2023/09/25 04:26:13;;;;;;;2.92;2.20;;;;;;;23.14;75.15;99904.47;4948192;29;20059;-84
2023/09/25 04:28:40;;;;;;;5.07;2.58;;;;;;;22.98;75.28;99891.06;4952928;29;20031;-86
2023/09/25 04:31:06;;;;;;;3.35;2.17;;;;;;;22.92;75.34;99886.09;4947141;29;20043;-86
2023/09/25 04:33:32;;;;;;;3.38;2.45;;;;;;;23.03;75.43;99910.50;4952124;28;20482;-86
2023/09/25 04:36:01;;;;;;;4.03;2.58;;;;;;;23.16;75.27;99925.91;4944121;29;20036;-85
2023/09/25 04:38:35;;;;;;;4.00;2.72;;;;;;;22.83;74.93;99865.16;4933307;29;20039;-85
2023/09/25 04:41:00;;;;;;;4.32;2.42;;;;;;;23.21;74.93;99937.22;4943993;29;20028;-85
2023/09/25 04:43:26;;;;;;;9.75;2.33;;;;;;;22.93;75.33;99903.09;4933129;29;20047;-89
2023/09/25 04:45:52;;;;;;;10.73;2.40;;;;;;;23.20;74.71;99943.56;4932548;29;20051;-86
2023/09/25 04:48:23;;;;;;;4.18;2.83;;;;;;;23.20;75.07;99941.75;4933626;29;20044;-85
2023/09/25 04:50:49;;;;;;;4.22;2.33;;;;;;;23.13;74.85;99926.09;4935215;29;20043;-86
2023/09/25 04:53:14;;;;;;;3.70;2.47;;;;;;;23.14;74.79;99923.31;4952076;29;20391;-86
2023/09/25 04:55:41;;;;;;;4.55;2.30;;;;;;;23.20;74.58;99932.78;4951728;29;20043;-86
2023/09/25 04:58:06;;;;;;;8.60;3.08;;;;;;;23.15;74.41;99919.63;4950982;29;20518;-87
2023/09/25 05:00:32;;;;;;;3.47;2.42;;;;;;;23.20;73.92;99927.41;4948415;29;20038;-84
2023/09/25 05:02:59;;;;;;;5.20;2.85;;;;;;;23.10;74.36;99904.75;4951115;29;20031;-88
2023/09/25 05:05:25;;;;;;;2.78;1.90;;;;;;;23.16;74.67;99912.44;4949210;29;20090;-87
2023/09/25 05:07:53;;;;;;;4.45;2.58;;;;;;;23.28;74.84;99926.91;4951948;29;20035;-87
2023/09/25 05:10:22;;;;;;;7.10;3.17;;;;;;;23.21;74.69;99913.84;4950625;29;20027;-82
2023/09/25 05:12:48;;;;;;;3.63;2.25;;;;;;;23.33;74.62;99932.88;4935456;29;20059;-82
2023/09/25 05:15:14;;;;;;;3.53;2.47;;;;;;;23.15;75.01;99914.25;4933082;29;20542;-82
2023/09/25 05:17:41;;;;;;;3.63;2.35;;;;;;;23.12;74.94;99895.59;4930550;29;20110;-82
2023/09/25 05:20:12;;;;;;;3.75;2.45;;;;;;;23.22;74.96;99914.75;4936011;29;21112;-83
2023/09/25 05:22:39;;;;;;;8.55;3.03;;;;;;;23.49;73.96;99940.81;4937379;29;20031;-83
2023/09/25 05:25:07;;;;;;;4.72;2.50;;;;;;;23.57;73.26;99941.19;4940867;29;20042;-83
2023/09/25 05:27:34;;;;;;;5.03;2.20;;;;;;;23.49;73.17;99928.22;4931794;29;20027;-84
2023/09/25 05:30:00;;;;;;;3.92;2.22;;;;;;;23.68;72.94;99953.94;4932357;29;20047;-82
2023/09/25 05:32:25;;;;;;;2.92;2.53;;;;;;;23.76;72.50;99938.16;4935762;29;20028;-82
2023/09/25 05:34:51;;;;;;;2.72;1.73;;;;;;;23.81;71.42;99924.38;4935781;29;20414;-82
2023/09/25 05:37:16;;;;;;;2.35;1.75;;;;;;;23.75;71.72;99937.28;4932534;29;20122;-82
2023/09/25 05:39:42;;;;;;;4.22;2.83;;;;;;;23.72;71.59;99934.78;4931957;29;20491;-82
2023/09/25 05:42:07;;;;;;;6.03;2.90;;;;;;;23.48;72.54;99920.25;4931955;29;20059;-84
2023/09/25 05:44:33;;;;;;;5.90;3.00;;;;;;;23.66;72.12;99945.97;4932166;29;20573;-83
2023/09/25 05:46:58;;;;;;;3.10;2.05;;;;;;;23.94;71.46;99949.56;4938823;29;20086;-83
2023/09/25 05:49:25;;;;;;;4.07;2.60;;;;;;;23.81;71.42;99930.63;4940818;29;20074;-85
2023/09/25 05:51:53;;;;;;;3.13;1.77;;;;;;;23.87;72.30;99969.81;4935759;29;20114;-83
2023/09/25 05:54:20;;;;;;;6.45;2.88;;;;;;;23.87;71.53;99949.13;4943312;29;20494;-84
2023/09/25 05:56:45;;;;;;;5.45;2.50;;;;;;;23.73;71.59;99947.31;4954702;29;20032;-86
2023/09/25 05:59:11;;;;;;;3.75;2.15;;;;;;;23.78;71.45;99969.41;4951522;29;20043;-83
2023/09/25 06:01:37;;;;;;;4.38;2.45;;;;;;;23.88;70.32;99979.59;4935404;29;20046;-84
2023/09/25 06:04:02;;;;;;;3.40;2.35;;;;;;;23.48;70.80;99949.84;4935775;29;20050;-83
2023/09/25 06:06:28;;;;;;;4.50;2.88;;;;;;;23.58;70.94;99953.69;4935725;29;20063;-82
2023/09/25 06:08:54;;;;;;;5.80;3.50;;;;;;;23.77;70.16;99980.28;4935774;29;20035;-83
2023/09/25 06:11:19;;;;;;;3.90;2.47;;;;;;;23.68;70.27;99989.84;4935318;29;20035;-82
2023/09/25 06:13:45;;;;;;;2.90;2.25;;;;;;;23.63;70.23;99988.41;4936858;29;20036;-80
2023/09/25 06:16:10;;;;;;;4.47;2.63;;;;;;;23.69;70.56;99990.69;4935477;29;20042;-81
2023/09/25 06:18:36;;;;;;;4.38;2.60;;;;;;;23.76;70.10;99974.03;4935635;29;20051;-81
2023/09/25 06:21:02;;;;;;;2.17;1.73;;;;;;;24.06;68.96;99972.97;4935559;29;20054;-82
2023/09/25 06:23:27;;;;;;;3.85;2.15;;;;;;;24.15;68.25;99998.47;4935743;29;20027;-82
2023/09/25 06:25:53;;;;;;;3.20;1.85;;;;;;;23.90;68.48;99985.78;4950682;29;20110;-82
2023/09/25 06:28:23;;;;;;;4.55;2.63;;;;;;;24.08;68.22;99989.06;4954654;29;20064;-81
2023/09/25 06:30:49;;;;;;;1.92;1.33;;;;;;;24.19;68.64;100008.09;4954791;29;20047;-82
2023/09/25 06:33:14;;;;;;;7.00;1.80;;;;;;;24.16;67.98;99973.25;4954001;29;20031;-82
2023/09/25 06:35:40;;;;;;;4.78;1.90;;;;;;;24.42;66.14;99960.69;4954108;29;20458;-82
2023/09/25 06:38:05;;;;;;;11.05;2.03;;;;;;;24.82;65.43;99978.66;4936353;29;20033;-82
2023/09/25 06:40:30;;;;;;;2.97;2.15;;;;;;;25.02;65.46;100012.34;4953979;29;20027;-83
2023/09/25 06:42:56;;;;;;;4.88;1.27;;;;;;;25.16;64.26;99979.84;4953922;29;20023;-84
2023/09/25 06:45:21;;;;;;;4.70;2.67;;;;;;;25.51;63.29;100002.63;4954599;29;20104;-81
2023/09/25 06:47:47;;;;;;;1.75;1.38;;;;;;;25.28;63.01;99970.00;4953470;29;20031;-81
2023/09/25 06:50:13;;;;;;;2.22;1.75;;;;;;;25.60;62.48;99999.25;4936738;29;20102;-81
2023/09/25 06:52:40;;;;;;;2.97;2.13;;;;;;;25.57;62.83;100020.22;4953664;29;20034;-82
2023/09/25 06:55:06;;;;;;;3.40;2.90;;;;;;;25.60;63.17;99983.03;4953528;28;20110;-81
2023/09/25 06:57:31;;;;;;;4.85;2.10;;;;;;;25.82;62.27;100000.38;4946128;29;20063;-82
2023/09/25 06:59:57;;;;;;;6.93;2.60;;;;;;;25.96;61.63;100013.72;4934486;29;20465;-86
2023/09/25 07:02:23;;;;;;;3.30;2.08;;;;;;;25.85;61.39;99979.38;4934234;29;20083;-85
2023/09/25 07:04:49;;;;;;;7.93;2.83;;;;;;;26.01;60.74;99989.97;4934666;29;20111;-83
2023/09/25 07:07:14;;;;;;;5.93;2.88;;;;;;;26.13;60.76;99993.56;4934304;29;20031;-84
2023/09/25 07:09:40;;;;;;;11.90;2.78;;;;;;;26.38;59.10;100005.22;4934383;29;20638;-84
2023/09/25 07:12:06;;;;;;;3.92;2.35;;;;;;;26.12;59.78;100005.38;4934690;29;20949;-85
2023/09/25 07:14:32;;;;;;;2.90;1.95;;;;;;;25.98;59.97;100003.69;4934739;29;20027;-84
2023/09/25 07:16:57;;;;;;;4.55;2.47;;;;;;;25.96;59.65;100023.66;4935040;29;20036;-86
2023/09/25 07:19:23;;;;;;;10.48;3.20;;;;;;;25.80;60.04;99961.81;4934547;29;20032;-85
2023/09/25 07:21:49;;;;;;;2.25;1.60;;;;;;;26.01;59.65;99994.47;4934296;29;20558;-84
2023/09/25 07:24:14;;;;;;;4.38;2.78;;;;;;;26.26;59.28;100015.13;4934139;29;20035;-85
2023/09/25 07:26:40;;;;;;;7.68;2.72;;;;;;;26.33;57.57;100013.69;4933553;29;20055;-84
2023/09/25 07:29:05;;;;;;;4.40;3.38;;;;;;;26.51;57.81;100024.06;4934782;29;20036;-86
2023/09/25 07:31:31;;;;;;;2.08;1.50;;;;;;;26.34;57.49;99999.19;4934001;29;20086;-84
2023/09/25 07:33:58;;;;;;;5.82;2.15;;;;;;;26.43;57.00;100000.31;4934409;29;20461;-84
2023/09/25 07:36:24;;;;;;;4.20;2.42;;;;;;;26.83;56.64;100027.03;4933740;29;20032;-85
2023/09/25 07:38:50;;;;;;;4.90;2.10;;;;;;;26.74;56.80;100022.31;4934559;29;20043;-85
2023/09/25 07:41:16;;;;;;;4.15;2.63;;;;;;;27.00;56.23;100023.00;4933830;29;20039;-84
2023/09/25 07:43:41;;;;;;;2.55;1.77;;;;;;;27.06;56.40;100027.91;4934651;29;20487;-84
2023/09/25 07:46:08;;;;;;;3.90;2.00;;;;;;;27.31;56.51;100017.84;4934370;29;20043;-85
2023/09/25 07:48:39;;;;;;;5.97;2.78;;;;;;;27.26;55.17;99985.72;4932746;29;20028;-85
2023/09/25 07:51:07;;;;;;;8.88;2.78;;;;;;;27.58;54.29;100025.66;4934226;29;20055;-83
2023/09/25 07:53:33;;;;;;;3.15;2.35;;;;;;;27.48;53.67;100000.28;4933860;29;20047;-84
2023/09/25 07:55:59;;;;;;;2.92;1.98;;;;;;;27.10;54.63;100021.28;4933843;29;20039;-84
2023/09/25 07:58:27;;;;;;;3.97;2.50;;;;;;;27.31;53.97;99980.84;4933922;29;20114;-84
2023/09/25 08:00:55;;;;;;;3.95;2.13;;;;;;;27.72;52.77;99988.44;4933713;29;20135;-85
2023/09/25 08:03:22;;;;;;;6.53;2.53;;;;;;;27.75;53.61;99996.31;4933987;29;20407;-85
2023/09/25 08:05:47;;;;;;;7.60;2.33;;;;;;;27.26;54.06;100023.63;4945084;29;20502;-84
2023/09/25 08:08:13;;;;;;;2.67;1.73;;;;;;;27.39;53.19;99995.59;4940268;29;20086;-83
2023/09/25 08:10:43;;;;;;;3.95;2.47;;;;;;;27.27;52.59;99992.88;4951949;29;20033;-83
2023/09/25 08:13:09;;;;;;;3.90;2.45;;;;;;;26.97;52.73;99966.41;4952493;29;20023;-85
2023/09/25 08:15:38;;;;;;;5.38;2.38;;;;;;;26.96;53.83;99981.78;4934972;29;20853;-83
2023/09/25 08:18:04;;;;;;;3.97;2.40;;;;;;;26.94;53.63;99985.59;4946185;29;20032;-85
2023/09/25 08:20:30;;;;;;;9.35;2.47;;;;;;;26.93;54.03;99998.25;4945682;29;20027;-85
2023/09/25 08:22:55;;;;;;;3.08;2.08;;;;;;;26.96;53.09;99989.91;4933752;29;20024;-88
2023/09/25 08:25:22;;;;;;;5.40;2.10;;;;;;;26.78;53.14;99977.81;4945037;29;20051;-87
2023/09/25 08:27:48;;;;;;;3.83;2.85;;;;;;;26.73;52.82;99943.00;4934351;29;20042;-87
2023/09/25 08:30:16;;;;;;;6.00;2.65;;;;;;;27.02;53.46;100006.63;4933151;29;20056;-87
2023/09/25 08:32:42;;;;;;;6.30;2.30;;;;;;;27.06;53.07;99972.94;4933670;29;20528;-87
2023/09/25 08:35:09;;;;;;;6.07;2.80;;;;;;;27.23;52.98;99977.84;4932996;29;20035;-87
2023/09/25 08:37:35;;;;;;;4.78;2.13;;;;;;;27.49;52.48;99992.03;4933462;29;20507;-87
2023/09/25 08:40:02;;;;;;;4.18;2.15;;;;;;;27.91;50.64;99991.34;4933021;29;20043;-88
2023/09/25 08:42:28;;;;;;;5.85;2.38;;;;;;;27.95;49.88;100003.69;4933100;29;20043;-87
2023/09/25 08:44:59;;;;;;;4.00;3.03;;;;;;;27.99;50.74;99990.72;4950704;29;20046;-87
2023/09/25 08:47:24;;;;;;;8.43;2.58;;;;;;;28.06;51.10;100000.09;4952543;29;20093;-86
2023/09/25 08:49:52;;;;;;;2.80;1.80;;;;;;;27.95;49.70;99986.53;4951924;29;20035;-87
2023/09/25 08:52:22;;;;;;;8.38;2.60;;;;;;;28.04;49.98;99980.38;4952385;29;20059;-87
2023/09/25 08:54:49;;;;;;;4.88;2.90;;;;;;;28.13;49.41;99970.59;4935809;29;20091;-90
2023/09/25 08:57:15;;;;;;;5.15;3.35;;;;;;;28.09;49.28;99988.97;4933545;29;20503;-89
2023/09/25 08:59:44;;;;;;;5.90;4.65;;;;;;;27.96;49.35;99969.28;4915958;29;20126;-88
2023/09/25 09:02:10;;;;;;;7.78;4.70;;;;;;;27.97;48.76;99971.03;4932606;29;20031;-88
2023/09/25 09:04:36;;;;;;;6.45;3.35;;;;;;;28.20;48.94;99980.78;4933397;29;20047;-89
2023/09/25 09:07:03;;;;;;;4.28;2.70;;;;;;;28.21;49.09;99976.25;4932740;29;20102;-88
2023/09/25 09:09:29;;;;;;;4.07;2.80;;;;;;;27.89;49.62;99965.38;4933023;29;20024;-87
2023/09/25 09:11:57;;;;;;;6.93;4.63;;;;;;;27.80;49.37;99931.75;4945363;29;20056;-85
2023/09/25 09:14:33;;;;;;;5.72;3.70;;;;;;;28.75;48.91;99988.81;4933286;29;20412;-86
2023/09/25 09:17:00;;;;;;;6.85;3.33;;;;;;;28.14;48.56;99928.94;4939376;29;20109;-86
2023/09/25 09:19:26;;;;;;;6.57;3.72;;;;;;;28.21;48.20;99957.25;4938883;29;20040;-85
2023/09/25 09:22:08;;;;;;;9.15;4.32;;;;;;;28.23;48.68;99975.09;4950954;29;20042;-84
2023/09/25 09:24:37;;;;;;;5.90;3.33;;;;;;;28.28;48.49;99953.03;4949603;29;20418;-92
2023/09/25 09:27:09;;;;;;;7.03;2.75;;;;;;;28.67;48.17;99953.34;4941087;29;20058;-86
2023/09/25 09:29:39;;;;;;;3.25;2.20;;;;;;;28.06;47.92;99907.06;4938876;29;20036;-87
2023/09/25 09:32:06;;;;;;;5.30;2.95;;;;;;;28.26;47.67;99918.91;4941226;29;20103;-86
2023/09/25 09:34:32;;;;;;;6.82;4.00;;;;;;;28.72;46.83;99944.81;4945585;29;20035;-86
2023/09/25 09:36:58;;;;;;;4.50;3.20;;;;;;;28.75;45.93;99918.25;4942919;29;20034;-85
2023/09/25 09:39:25;;;;;;;4.90;3.15;;;;;;;28.98;44.29;99922.63;4945462;29;20043;-88
2023/09/25 09:41:55;;;;;;;4.15;2.63;;;;;;;29.04;43.96;99922.97;4951749;29;20035;-86
2023/09/25 09:44:21;;;;;;;2.70;2.25;;;;;;;28.93;44.22;99918.50;4946572;29;20039;-87
2023/09/25 09:46:50;;;;;;;4.25;3.00;;;;;;;28.81;44.03;99930.44;4932781;29;20499;-87
2023/09/25 09:49:22;;;;;;;3.97;2.15;;;;;;;28.58;45.07;99894.41;4932779;29;20032;-88
2023/09/25 09:51:50;;;;;;;8.35;2.38;;;;;;;28.47;44.06;99883.63;4940564;29;20031;-87
2023/09/25 09:54:18;;;;;;;8.00;2.95;;;;;;;28.42;44.65;99951.00;4936630;29;20417;-86
2023/09/25 09:56:47;;;;;;;10.15;2.70;;;;;;;28.25;44.83;99896.34;4931657;29;20039;-86
2023/09/25 09:59:14;;;;;;;4.93;2.50;;;;;;;28.50;45.26;99948.47;4932679;29;20565;-86
2023/09/25 10:01:43;;;;;;;4.18;2.63;;;;;;;28.09;45.11;99913.06;4931548;29;20043;-86
2023/09/25 10:04:10;;;;;;;3.42;1.98;;;;;;;28.00;45.47;99908.41;4931623;29;20054;-87
2023/09/25 10:06:43;;;;;;;3.20;2.20;;;;;;;27.53;45.93;99881.59;4932736;29;20032;-90
2023/09/25 10:09:10;;;;;;;4.15;2.58;;;;;;;27.87;45.69;99908.56;4933088;29;20038;-89
2023/09/25 10:11:36;;;;;;;3.35;2.47;;;;;;;27.98;45.39;99899.56;4915815;29;20031;-89
2023/09/25 10:14:05;;;;;;;3.30;2.63;;;;;;;28.30;45.02;99931.19;4932428;29;20566;-90
2023/09/25 10:17:01;;;;;;;3.40;2.50;;;;;;;28.18;44.82;99906.00;4932529;29;20068;-86
2023/09/25 10:19:49;;;;;;;18.67;3.20;;;;;;;28.38;44.87;99955.81;4932040;29;20499;-87
2023/09/25 10:22:22;;;;;;;7.85;2.92;;;;;;;27.99;45.92;99901.25;4915063;29;20036;-88
2023/09/25 10:25:09;;;;;;;6.00;2.88;;;;;;;28.17;45.16;99896.13;4931850;29;20040;-88
2023/09/25 10:27:39;;;;;;;23.52;4.07;;;;;;;27.93;44.91;99880.94;4931411;29;20039;-89
2023/09/25 10:30:11;;;;;;;2.83;1.90;;;;;;;27.81;45.29;99890.13;4930825;29;20039;-87
2023/09/25 10:32:38;;;;;;;3.08;2.22;;;;;;;28.16;44.80;99870.00;4918711;29;20039;-92
2023/09/25 10:35:42;;;;;;;3.53;2.30;;;;;;;28.72;44.37;99921.22;4918799;29;20510;-88
2023/09/25 10:38:13;;;;;;;2.60;1.70;;;;;;;28.64;43.80;99868.59;4935541;29;20114;-86
2023/09/25 10:40:42;;;;;;;3.90;2.00;;;;;;;28.89;43.68;99878.19;4936064;29;20036;-88
2023/09/25 10:43:08;;;;;;;2.05;1.50;;;;;;;28.81;42.50;99845.41;4936156;29;20036;-87
2023/09/25 10:45:35;;;;;;;2.85;1.95;;;;;;;28.55;42.91;99830.41;4918340;29;20039;-87
2023/09/25 10:48:01;;;;;;;9.68;2.97;;;;;;;28.45;43.41;99837.63;4935342;29;20040;-89
2023/09/25 10:50:27;;;;;;;2.50;1.95;;;;;;;28.24;44.26;99851.25;4935051;29;20038;-89
2023/09/25 10:52:52;;;;;;;3.90;2.75;;;;;;;28.48;44.13;99869.94;4935440;29;20031;-87
2023/09/25 10:55:18;;;;;;;15.05;2.72;;;;;;;28.59;43.48;99871.72;4934955;29;20035;-88
2023/09/25 10:57:44;;;;;;;6.38;2.33;;;;;;;29.19;43.09;99909.00;4935574;29;20110;-87
2023/09/25 11:00:14;;;;;;;3.13;1.63;;;;;;;28.67;42.78;99822.22;4935362;29;20039;-88
2023/09/25 11:02:40;;;;;;;3.83;2.67;;;;;;;28.83;43.03;99857.00;4935234;29;20031;-89
2023/09/25 11:05:07;;;;;;;11.88;3.15;;;;;;;28.94;42.86;99863.16;4935673;29;20115;-88
2023/09/25 11:07:36;;;;;;;4.10;2.47;;;;;;;28.86;42.85;99830.44;4917300;29;20036;-89
2023/09/25 11:10:02;;;;;;;2.40;1.75;;;;;;;28.79;43.25;99836.56;4935220;29;20027;-88
2023/09/25 11:12:29;;;;;;;4.20;1.80;;;;;;;28.64;43.41;99831.50;4935012;29;20039;-87
2023/09/25 11:14:56;;;;;;;3.58;2.25;;;;;;;28.18;43.92;99802.97;4934817;29;20039;-87
2023/09/25 11:17:22;;;;;;;2.80;1.67;;;;;;;28.78;43.33;99872.81;4934779;29;20040;-87
2023/09/25 11:19:47;;;;;;;4.43;2.30;;;;;;;28.21;43.62;99795.41;4934841;29;20024;-87
2023/09/25 11:22:13;;;;;;;4.03;2.30;;;;;;;27.93;44.08;99794.22;4917067;29;20122;-87
2023/09/25 11:24:40;;;;;;;3.65;1.98;;;;;;;28.36;44.23;99808.59;4935095;29;20032;-88
2023/09/25 11:27:08;;;;;;;4.60;1.60;;;;;;;27.90;44.02;99771.91;4934738;29;20035;-88
2023/09/25 11:29:35;;;;;;;1.25;1.10;;;;;;;28.07;44.25;99790.34;4935189;29;20031;-87